Latest Weather Observations for Cape Moreton

IDQ60901

Issued at 6:21 pm EST Thursday 30 July 2015 (issued every 10 minutes, with the page automatically refreshed every 10 minutes)

About weather observations | Map of Brisbane area stations | Latest observations for Brisbane area | Other Formats
Station Details ID: 040043 Name: CAPE MORETON LIGHTHOUSE Lat: -27.03 Lon: 153.47 Height: 99.9 m
Data from the previous 72 hours. | See also: Recent months at Cape Moreton
Date/Time
EST
Tmp

°C
App
Tmp
°C
Dew
Point
°C
Rel
Hum
%
Delta-T

°C
Wind Press
QNH
hPa
Press
MSL
hPa
Rain
since
9 am
mm
Dir
 
Spd
km/h
Gust
km/h
Spd
kts
Gust
kts
30/06:00pm 16.4 15.2 13.9 85 1.4 SW 13 15 7 8 1024.8 1024.6 -
30/05:30pm 17.2 16.8 14.1 82 1.8 SSW 9 13 5 7 1024.6 1024.4 -
30/05:00pm 17.9 17.2 14.2 79 2.1 S 11 17 6 9 1024.1 1023.9 -
30/04:30pm 18.1 17.3 14.0 77 2.4 S 11 15 6 8 1024.0 1023.8 -
30/04:00pm 18.2 17.4 13.9 76 2.5 S 11 17 6 9 1024.2 1024.0 -
30/03:30pm 18.5 17.2 13.8 74 2.7 SSE 13 19 7 10 1024.3 1024.1 -
30/03:00pm 18.5 16.9 12.9 70 3.1 SE 13 19 7 10 1024.5 1024.3 -
30/02:00pm 19.7 17.6 13.6 68 3.5 SE 17 24 9 13 1024.8 1024.6 0.2
30/01:30pm 19.3 17.2 14.6 74 2.7 SE 19 24 10 13 1025.0 1024.8 0.0
30/01:00pm 18.8 15.9 14.1 74 2.7 SE 22 30 12 16 1025.4 1025.3 0.0
30/12:30pm 19.2 16.8 14.5 74 2.7 SSE 20 28 11 15 1025.8 1025.7 0.0
30/12:00pm 18.8 16.2 13.9 73 2.8 SSE 20 28 11 15 1026.4 1026.3 0.0
30/11:30am 18.7 15.9 13.3 71 3.1 SSE 20 26 11 14 1026.8 1026.7 0.0
30/11:00am 18.7 15.9 13.3 71 3.1 SSE 20 28 11 15 1027.2 1027.1 0.0
30/10:30am 18.7 16.5 13.3 71 3.1 S 17 24 9 13 1027.5 1027.4 0.0
30/10:00am 18.1 16.0 13.6 75 2.6 S 17 24 9 13 1027.7 1027.6 0.0
30/09:30am 17.7 15.6 13.6 77 2.3 S 17 22 9 12 1027.8 1027.7 0.0
30/09:00am 17.0 14.5 13.5 80 2.0 S 19 24 10 13 1027.6 1027.5 0.0
30/08:30am 16.7 14.5 13.2 80 2.0 S 17 22 9 12 1027.3 1027.2 0.0
30/08:00am 16.1 13.5 13.2 83 1.6 S 19 24 10 13 1027.1 1027.0 0.0
30/07:30am 15.0 12.1 12.9 87 1.2 SSW 20 24 11 13 1027.1 1027.0 0.0
30/07:00am 14.8 12.2 13.2 90 0.9 S 19 22 10 12 1026.9 1026.8 0.0
30/06:30am 14.0 10.4 12.0 88 1.1 S 22 26 12 14 1026.6 1026.5 0.0
30/06:00am 13.8 10.0 11.3 85 1.3 SSW 22 26 12 14 1026.7 1026.6 0.0
30/05:30am 14.0 10.0 10.6 80 1.8 SSW 22 26 12 14 1026.5 1026.4 0.0
30/05:00am 13.8 9.5 9.5 75 2.2 SSW 22 32 12 17 1026.4 1026.3 0.0
30/04:30am 13.8 9.2 8.2 69 2.8 SSW 22 28 12 15 1026.5 1026.4 0.0
30/04:00am 14.1 9.0 7.6 65 3.2 SSW 24 32 13 17 1026.7 1026.6 0.0
30/03:30am 14.4 9.2 8.8 69 2.8 SSW 26 32 14 17 1026.8 1026.7 0.0
30/03:00am 14.5 9.8 9.3 71 2.7 SSW 24 32 13 17 1027.0 1026.9 0.0
30/02:30am 14.9 9.7 8.8 67 3.1 SSW 26 35 14 19 1027.2 1027.1 0.0
30/02:00am 14.7 9.4 8.6 67 3.1 SSW 26 33 14 18 1027.3 1027.2 0.0
30/01:30am 14.7 10.0 9.1 69 2.9 S 24 30 13 16 1027.6 1027.5 0.0
30/01:00am 14.9 10.5 9.1 68 3.0 S 22 26 12 14 1027.9 1027.8 0.0
30/12:30am 14.9 10.5 9.1 68 3.0 SSW 22 28 12 15 1028.5 1028.4 0.0
30/12:00am 15.6 11.1 10.2 70 2.8 SSW 24 30 13 16 1028.7 1028.6 0.0
 
Date/Time
EST
Tmp

°C
App
Tmp
°C
Dew
Point
°C
Rel
Hum
%
Delta-T

°C
Wind Press
QNH
hPa
Press
MSL
hPa
Rain
since
9 am
mm
Dir
 
Spd
km/h
Gust
km/h
Spd
kts
Gust
kts
29/11:30pm 15.7 11.2 10.0 69 3.0 S 24 32 13 17 1028.8 1028.7 0.0
29/11:00pm 15.7 11.5 9.8 68 3.1 SSW 22 28 12 15 1028.9 1028.8 0.0
29/10:30pm 17.2 13.1 10.1 63 3.8 SSE 22 32 12 17 1029.0 1028.9 0.0
29/10:00pm 17.0 12.4 9.7 62 3.8 SE 24 32 13 17 1028.9 1028.8 0.0
29/09:30pm 16.8 12.5 9.5 62 3.8 SE 22 28 12 15 1029.0 1028.9 0.0
29/09:00pm 17.0 12.2 10.4 65 3.5 SE 26 32 14 17 1029.0 1028.9 0.0
29/08:30pm 17.1 12.4 10.5 65 3.5 SE 26 33 14 18 1029.1 1029.0 0.0
29/08:00pm 16.9 12.7 9.6 62 3.8 SE 22 30 12 16 1029.1 1029.0 0.0
29/07:30pm 16.7 11.9 8.9 60 4.0 SE 24 28 13 15 1029.0 1028.9 0.0
29/07:00pm 16.8 12.2 9.7 63 3.7 SE 24 30 13 16 1028.9 1028.8 0.0
29/06:30pm 16.7 11.7 9.6 63 3.7 SE 26 32 14 17 1028.7 1028.6 0.0
29/06:00pm 16.7 11.3 9.4 62 3.8 SE 28 33 15 18 1028.4 1028.3 0.0
29/05:30pm 16.7 11.1 8.7 59 4.1 SE 28 33 15 18 1028.2 1028.1 0.0
29/05:00pm 16.9 11.4 9.3 61 3.9 SE 28 35 15 19 1028.1 1028.0 0.0
29/04:30pm 17.2 11.4 9.4 60 4.1 SSE 30 35 16 19 1028.0 1027.9 0.0
29/04:00pm 17.3 11.3 8.7 57 4.4 SE 30 37 16 20 1027.8 1027.7 0.0
29/03:30pm 17.4 11.5 9.1 58 4.3 SSE 30 39 16 21 1027.9 1027.8 0.0
29/03:00pm 17.6 11.3 9.8 60 4.1 SSE 33 41 18 22 1028.0 1027.9 0.0
29/02:30pm 17.5 11.4 9.9 61 4.0 SSE 32 41 17 22 1028.1 1028.0 0.0
29/02:00pm 17.8 12.2 10.2 61 4.0 SSE 30 44 16 24 1028.3 1028.2 0.0
29/01:30pm 17.8 10.7 9.7 59 4.3 SSE 37 46 20 25 1028.1 1028.0 0.0
29/01:00pm 17.9 10.4 9.3 57 4.5 SSE 39 48 21 26 1028.5 1028.4 0.0
29/12:30pm 17.7 10.1 9.1 57 4.5 SSE 39 48 21 26 1028.8 1028.7 0.0
29/12:00pm 17.8 10.4 9.7 59 4.3 SSE 39 46 21 25 1029.4 1029.3 0.0
29/11:30am 17.5 11.5 10.1 62 3.9 SSE 32 41 17 22 1030.0 1029.9 0.0
29/11:00am 17.1 11.4 9.8 62 3.8 S 30 39 16 21 1030.5 1030.4 0.0
29/10:30am 16.9 10.6 9.6 62 3.8 S 33 43 18 23 1030.7 1030.6 0.0
29/10:00am 16.5 10.3 9.4 63 3.7 S 32 41 17 22 1030.9 1030.8 0.0
29/09:30am 16.3 10.5 9.3 63 3.6 S 30 41 16 22 1031.0 1030.9 0.0
29/09:00am 15.6 9.6 8.6 63 3.5 S 30 39 16 21 1030.9 1030.8 0.2
29/08:30am 15.0 9.3 8.5 65 3.3 S 28 41 15 22 1031.0 1030.9 0.2
29/08:00am 14.1 7.4 7.4 64 3.3 SSW 32 41 17 22 1030.9 1030.8 0.2
29/07:30am 13.5 6.6 7.1 65 3.1 SSW 33 44 18 24 1030.7 1030.6 0.2
29/07:00am 13.4 7.1 7.2 66 3.0 SSW 30 39 16 21 1030.5 1030.4 0.2
29/06:30am 12.8 6.8 7.0 68 2.8 SSW 28 37 15 20 1030.0 1029.9 0.2
29/06:00am 13.2 7.8 7.9 70 2.6 S 26 32 14 17 1029.7 1029.6 0.2
29/05:30am 13.2 7.7 7.4 68 2.8 S 26 33 14 18 1029.4 1029.3 0.2
29/05:00am 13.5 7.6 7.7 68 2.8 S 28 37 15 20 1029.0 1028.9 0.2
29/04:30am 13.3 6.8 6.6 64 3.2 S 30 41 16 22 1029.0 1028.9 0.2
29/04:00am 13.4 7.1 7.2 66 3.0 SSW 30 37 16 20 1029.0 1028.9 0.2
29/03:30am 13.4 7.5 7.6 68 2.9 SSW 28 39 15 21 1029.3 1029.2 0.2
29/03:00am 13.6 8.2 8.2 70 2.7 SSW 26 33 14 18 1029.3 1029.2 0.2
29/02:30am 13.6 7.9 8.4 71 2.6 SSW 28 37 15 20 1029.3 1029.2 0.2
29/02:00am 13.3 7.7 8.8 74 2.3 SSW 28 32 15 17 1029.3 1029.2 0.2
29/01:30am 13.7 9.0 9.4 75 2.2 SSW 24 32 13 17 1029.5 1029.4 0.2
29/01:00am 14.1 9.7 9.1 72 2.5 S 22 32 12 17 1029.6 1029.5 0.2
29/12:30am 15.2 11.6 10.0 71 2.7 S 19 26 10 14 1029.7 1029.6 0.2
29/12:00am 16.7 10.1 7.6 55 4.6 SE 32 41 17 22 1029.5 1029.4 0.2
 
Date/Time
EST
Tmp

°C
App
Tmp
°C
Dew
Point
°C
Rel
Hum
%
Delta-T

°C
Wind Press
QNH
hPa
Press
MSL
hPa
Rain
since
9 am
mm
Dir
 
Spd
km/h
Gust
km/h
Spd
kts
Gust
kts
28/11:30pm 16.8 10.9 9.2 61 4.0 ESE 30 35 16 19 1029.7 1029.6 0.2
28/11:00pm 17.0 11.7 9.7 62 3.8 ESE 28 37 15 20 1029.8 1029.7 0.2
28/10:30pm 16.8 10.6 9.2 61 4.0 SE 32 43 17 23 1030.0 1029.9 0.2
28/10:00pm 16.7 10.6 9.6 63 3.7 ESE 32 39 17 21 1029.9 1029.8 0.2
28/09:30pm 16.8 10.8 10.0 64 3.6 ESE 32 39 17 21 1029.9 1029.8 0.2
28/09:00pm 16.7 10.1 8.7 59 4.1 ESE 33 43 18 23 1029.8 1029.7 0.2
28/08:30pm 16.7 9.6 7.9 56 4.5 SE 35 44 19 24 1029.8 1029.7 0.2
28/08:00pm 16.8 9.2 9.0 60 4.0 ESE 39 46 21 25 1029.6 1029.5 0.2
28/07:30pm 16.8 9.4 8.5 58 4.3 ESE 37 46 20 25 1029.4 1029.3 0.2
28/07:00pm 16.6 9.1 7.8 56 4.4 SE 37 46 20 25 1029.2 1029.1 0.2
28/06:30pm 16.6 9.8 9.3 62 3.8 SE 35 43 19 23 1029.1 1029.0 0.2
28/06:00pm 16.6 9.9 9.8 64 3.6 SE 35 43 19 23 1028.6 1028.5 0.2
28/05:30pm 16.5 9.2 8.7 60 4.0 SE 37 43 20 23 1028.3 1028.2 0.2
28/05:00pm 16.6 9.7 8.8 60 4.0 SE 35 44 19 24 1028.2 1028.1 0.2
28/04:30pm 16.7 9.7 8.4 58 4.3 SE 35 46 19 25 1028.1 1028.0 0.2
28/04:00pm 16.9 9.6 8.8 59 4.2 SE 37 44 20 24 1027.8 1027.7 0.2
28/03:30pm 16.8 9.0 8.2 57 4.4 SE 39 46 21 25 1027.7 1027.6 0.2
28/03:00pm 17.0 9.7 8.9 59 4.2 SE 37 48 20 26 1027.5 1027.4 0.2
28/02:30pm 17.1 9.2 9.3 60 4.1 SSE 41 46 22 25 1027.5 1027.4 0.2
28/02:00pm 17.3 9.6 10.2 63 3.8 SE 41 54 22 29 1027.6 1027.5 0.2
28/01:30pm 17.3 9.9 11.1 67 3.4 SE 41 52 22 28 1027.9 1027.8 0.2
28/01:00pm 17.3 9.4 10.7 65 3.5 SE 43 54 23 29 1027.9 1027.8 0.2
28/12:30pm 17.3 9.2 10.9 66 3.5 SSE 44 54 24 29 1028.2 1028.1 0.2
28/12:00pm 17.6 9.9 11.6 68 3.3 SE 43 50 23 27 1028.4 1028.3 0.2
28/11:30am 17.7 9.6 11.9 69 3.2 SSE 46 57 25 31 1028.5 1028.4 0.2
28/11:00am 17.0 9.1 11.3 69 3.1 SSE 44 54 24 29 1028.7 1028.6 0.2
28/10:30am 16.7 7.6 11.4 71 2.9 SSE 50 61 27 33 1028.8 1028.7 0.0
28/10:00am 16.6 9.1 12.2 75 2.4 SSE 43 56 23 30 1028.9 1028.8 0.0
28/09:54am 16.2 10.2 12.2 77 2.2 SSE 35 54 19 29 1029.1 1029.0 0.0
28/09:30am 15.6 9.0 11.4 76 2.3 SSE 37 48 20 26 1029.0 1028.9 0.0
28/09:00am 15.6 9.4 11.4 76 2.3 S 35 43 19 23 1028.8 1028.7 0.0
28/08:30am 15.1 10.1 11.1 77 2.1 S 28 41 15 22 1028.6 1028.5 0.0
28/08:00am 14.3 8.7 10.1 76 2.2 S 30 41 16 22 1028.4 1028.3 0.0
28/07:30am 14.1 8.0 9.7 75 2.3 SSW 32 43 17 23 1028.0 1027.9 0.0
28/07:00am 13.8 8.0 9.6 76 2.1 SSW 30 39 16 21 1027.7 1027.6 0.0
28/06:30am 13.6 9.0 9.5 76 2.1 S 24 32 13 17 1027.5 1027.4 0.0
28/06:00am 13.6 7.8 9.6 77 2.0 SSW 30 39 16 21 1027.1 1027.0 0.0
28/05:30am 13.2 9.5 10.0 81 1.7 SSW 20 28 11 15 1026.8 1026.7 0.0
28/05:00am 13.7 10.1 10.5 81 1.7 SSW 20 30 11 16 1026.9 1026.8 0.0
28/04:30am 13.7 9.7 10.3 80 1.8 SSW 22 28 12 15 1026.3 1026.2 0.0
28/04:00am 13.9 9.4 10.1 78 2.0 S 24 28 13 15 1026.2 1026.1 0.0
28/03:30am 13.7 9.0 9.4 75 2.2 SSW 24 32 13 17 1026.2 1026.1 0.0
28/03:00am 13.9 8.7 8.9 72 2.5 SSW 26 33 14 18 1025.9 1025.8 0.0
28/02:30am 13.7 8.1 7.2 65 3.2 SSW 26 37 14 20 1025.8 1025.7 0.0
28/02:00am 13.5 7.4 6.6 63 3.3 SW 28 37 15 20 1025.8 1025.7 0.0
28/01:30am 13.5 7.7 6.1 61 3.5 SW 26 35 14 19 1025.8 1025.7 0.0
28/01:00am 13.6 7.4 6.2 61 3.5 SW 28 37 15 20 1025.9 1025.8 0.0
28/12:30am 13.6 7.5 6.7 63 3.3 SW 28 35 15 19 1025.7 1025.6 0.0
28/12:00am 13.9 8.3 7.0 63 3.4 SW 26 35 14 19 1025.6 1025.5 0.0
 
Date/Time
EST
Tmp

°C
App
Tmp
°C
Dew
Point
°C
Rel
Hum
%
Delta-T

°C
Wind Press
QNH
hPa
Press
MSL
hPa
Rain
since
9 am
mm
Dir
 
Spd
km/h
Gust
km/h
Spd
kts
Gust
kts
27/11:30pm 14.4 7.9 6.5 59 3.8 SW 30 39 16 21 1025.9 1025.8 0.0
27/11:00pm 14.6 9.1 7.6 63 3.5 SW 26 35 14 19 1026.0 1025.9 0.0
27/10:30pm 15.0 9.6 7.8 62 3.6 SW 26 35 14 19 1026.0 1025.9 0.0
27/10:00pm 15.2 9.8 8.2 63 3.5 SW 26 32 14 17 1025.8 1025.7 0.0
27/09:30pm 15.6 11.1 9.9 69 3.0 SW 24 33 13 18 1025.4 1025.3 0.0
27/09:00pm 16.5 13.3 9.9 65 3.5 SW 17 19 9 10 1025.3 1025.2 0.0
27/08:30pm 16.6 13.7 9.5 63 3.7 SW 15 17 8 9 1025.3 1025.2 0.0
27/08:00pm 17.3 14.9 8.7 57 4.4 SW 11 13 6 7 1025.0 1024.8 0.0
27/07:30pm 17.1 14.2 9.5 61 4.0 WSW 15 17 8 9 1024.8 1024.6 0.0
27/07:00pm 17.0 15.4 10.1 64 3.6 S 9 15 5 8 1024.6 1024.4 0.0
27/06:30pm 17.8 15.6 10.7 63 3.8 SE 13 17 7 9 1024.2 1024.0 0.0

Latest Capital City Observations: Canberra | Sydney | Melbourne | Brisbane | Adelaide | Perth | Hobart | Darwin

Other Formats:

Comma delimited format used in spreadsheet applications
http://www.bom.gov.au/fwo/IDQ60901/IDQ60901.94594.axf

JavaScript Object Notation format (JSON) in row-major order
http://www.bom.gov.au/fwo/IDQ60901/IDQ60901.94594.json